createdAt,value
2019-04-06T09:41:50.487Z,33.17
2019-04-06T09:44:21.987Z,30.80
2019-04-06T09:47:04.298Z,29.77
2019-04-06T09:49:45.164Z,33.27
2019-04-06T09:52:25.735Z,36.10
2019-04-06T09:55:03.395Z,34.10
2019-04-06T09:57:38.158Z,31.83
2019-04-06T10:00:19.953Z,30.50
2019-04-06T10:02:54.941Z,33.07
2019-04-06T10:05:32.471Z,32.30
2019-04-06T10:08:16.071Z,31.77
2019-04-06T10:10:47.586Z,32.40
2019-04-06T10:13:28.036Z,33.33
2019-04-06T10:16:16.011Z,35.67
2019-04-06T10:18:49.123Z,34.63
2019-04-06T10:21:24.118Z,34.40
2019-04-06T10:23:59.773Z,28.63
2019-04-06T10:26:49.757Z,32.07
2019-04-06T10:29:47.724Z,35.83
2019-04-06T10:32:21.006Z,21.63
2019-04-06T10:34:56.139Z,24.13
2019-04-06T10:37:39.812Z,28.50
2019-04-06T10:40:20.645Z,30.80
2019-04-06T10:43:04.335Z,29.67
2019-04-06T10:45:52.417Z,28.80
2019-04-06T10:48:35.910Z,30.77
2019-04-06T10:51:11.992Z,32.10
2019-04-06T10:53:43.454Z,31.20
2019-04-06T10:56:26.973Z,32.37
2019-04-06T10:58:58.527Z,31.97
2019-04-06T11:01:46.728Z,29.13
2019-04-06T11:04:25.229Z,25.63
2019-04-06T11:07:13.944Z,28.83
2019-04-06T11:09:45.408Z,29.17
2019-04-06T11:12:29.580Z,35.23
2019-04-06T11:15:13.707Z,29.87
2019-04-06T11:17:48.419Z,27.23
2019-04-06T11:20:32.034Z,27.70
2019-04-06T11:23:06.479Z,25.57
2019-04-06T11:25:38.003Z,27.27
2019-04-06T11:28:18.462Z,26.93
2019-04-06T11:30:50.292Z,24.70
2019-04-06T11:33:24.705Z,29.30
2019-04-06T11:35:58.875Z,26.63
2019-04-06T11:38:30.399Z,24.33
2019-04-06T11:41:07.861Z,23.37
2019-04-06T11:43:55.551Z,23.70
2019-04-06T11:46:27.012Z,22.10
2019-04-06T11:49:07.148Z,21.03
2019-04-06T11:51:50.908Z,24.87
2019-04-06T11:54:22.366Z,26.00
2019-04-06T11:56:53.884Z,18.53
2019-04-06T11:59:31.455Z,17.97
2019-04-06T12:02:02.964Z,17.17
2019-04-06T12:04:46.205Z,18.97
2019-04-06T12:07:34.090Z,21.17
2019-04-06T12:10:26.548Z,17.03
2019-04-06T12:12:59.091Z,19.37
2019-04-06T12:15:35.579Z,17.23
2019-04-06T12:18:07.627Z,13.77
2019-04-06T12:20:45.071Z,18.37
2019-04-06T12:23:19.850Z,20.67
2019-04-06T12:26:03.778Z,21.17
